Time;durP1;ratioP1;P1;durP2;ratioP2;P2;SDS_P1;SDS_P2;PMS_P1;PMS_P2;Temp;Humidity;BMP_temperature;BMP_pressure;BME280_temperature;BME280_humidity;BME280_pressure;Samples;Min_cycle;Max_cycle;Signal;HPM_P1;HPM_P2
2022/04/04 00:00:14;;;;;;;4.55;2.97;;;;;;;19.32;46.40;101538.88;5051668;28;20033;-81
2022/04/04 00:02:40;;;;;;;3.33;2.90;;;;;;;19.24;46.68;101542.59;5051772;28;20108;-81
2022/04/04 00:05:06;;;;;;;3.05;2.47;;;;;;;19.18;46.95;101538.44;5051782;28;20071;-81
2022/04/04 00:07:32;;;;;;;2.70;2.13;;;;;;;19.52;46.11;101534.28;5051726;28;20029;-85
2022/04/04 00:09:57;;;;;;;3.22;2.75;;;;;;;19.16;47.44;101540.78;5050312;28;20029;-82
2022/04/04 00:12:23;;;;;;;3.47;2.67;;;;;;;19.64;46.12;101538.97;5051645;28;20074;-84
2022/04/04 00:14:50;;;;;;;2.90;2.47;;;;;;;19.81;45.68;101530.34;5051475;28;20394;-80
2022/04/04 00:17:16;;;;;;;2.75;2.13;;;;;;;19.51;46.45;101529.91;5050330;28;20032;-81
2022/04/04 00:19:41;;;;;;;3.17;2.50;;;;;;;19.62;46.24;101519.13;5051353;28;20611;-82
2022/04/04 00:22:07;;;;;;;2.67;2.20;;;;;;;19.72;46.25;101521.34;5051405;28;20459;-85
2022/04/04 00:24:33;;;;;;;2.88;1.80;;;;;;;19.37;46.98;101515.66;5051321;28;20037;-80
2022/04/04 00:26:59;;;;;;;3.03;2.00;;;;;;;19.17;47.77;101508.34;5051291;28;20035;-80
2022/04/04 00:29:26;;;;;;;2.60;1.88;;;;;;;19.58;46.91;101507.13;5051219;28;20033;-81
2022/04/04 00:31:53;;;;;;;2.35;1.63;;;;;;;19.58;46.75;101496.06;5051180;28;20033;-79
2022/04/04 00:34:18;;;;;;;1.73;1.50;;;;;;;19.65;46.53;101491.50;5051186;28;20112;-81
2022/04/04 00:36:45;;;;;;;2.22;1.65;;;;;;;19.65;46.67;101508.13;5051235;28;20036;-80
2022/04/04 00:39:15;;;;;;;2.25;1.80;;;;;;;19.63;46.87;101504.91;5051060;28;20029;-80
2022/04/04 00:41:44;;;;;;;1.60;1.48;;;;;;;20.11;45.65;101504.94;5051164;28;20037;-79
2022/04/04 00:44:10;;;;;;;3.63;1.70;;;;;;;19.90;45.95;101497.69;5049706;28;20118;-80
2022/04/04 00:46:40;;;;;;;1.45;1.35;;;;;;;19.81;46.48;101502.59;5051220;28;20621;-80
2022/04/04 00:49:06;;;;;;;1.67;1.42;;;;;;;19.93;46.11;101501.69;5050983;28;20036;-80
2022/04/04 00:51:32;;;;;;;3.25;1.60;;;;;;;20.05;45.87;101506.34;5050837;28;20033;-80
2022/04/04 00:53:57;;;;;;;2.55;1.48;;;;;;;19.54;47.18;101504.22;5050878;28;20022;-85
2022/04/04 00:56:27;;;;;;;2.80;1.83;;;;;;;19.95;46.16;101500.19;5049544;28;20029;-86
2022/04/04 00:58:53;;;;;;;;;;;;;;;20.03;46.02;101494.81;5051689;28;20024;-81
2022/04/04 01:01:22;;;;;;;2.72;1.02;;;;;;;19.47;47.23;101500.47;5050888;28;19924;-83
2022/04/04 01:03:48;;;;;;;2.33;1.30;;;;;;;19.70;46.80;101501.50;5050699;28;20017;-80
2022/04/04 01:06:13;;;;;;;1.75;1.20;;;;;;;19.82;46.36;101490.34;5050751;28;20027;-80
2022/04/04 01:08:39;;;;;;;6.63;1.45;;;;;;;19.80;46.37;101495.44;5050718;28;20427;-82
2022/04/04 01:11:05;;;;;;;1.05;0.95;;;;;;;19.80;46.42;101487.13;5050733;28;20021;-80
2022/04/04 01:13:31;;;;;;;1.48;1.00;;;;;;;19.90;46.26;101483.81;5050576;28;20025;-81
2022/04/04 01:15:57;;;;;;;2.38;1.30;;;;;;;19.94;46.10;101478.34;5049299;28;20037;-81
2022/04/04 01:18:23;;;;;;;2.85;1.27;;;;;;;19.94;45.93;101476.38;5050651;28;20382;-81
2022/04/04 01:20:49;;;;;;;1.77;1.00;;;;;;;19.98;45.86;101468.16;5050499;28;20097;-81
2022/04/04 01:23:24;;;;;;;1.02;0.80;;;;;;;20.01;45.92;101463.84;5050424;28;20108;-86
2022/04/04 01:25:50;;;;;;;3.03;1.00;;;;;;;19.94;45.96;101454.19;5050494;28;20039;-83
2022/04/04 01:28:15;;;;;;;1.45;0.80;;;;;;;19.93;46.02;101447.03;5049127;28;20021;-80
2022/04/04 01:30:41;;;;;;;3.08;1.15;;;;;;;20.01;45.78;101447.19;5050404;28;20021;-80
2022/04/04 01:33:07;;;;;;;1.10;0.68;;;;;;;19.94;46.06;101436.72;5050378;28;20021;-81
2022/04/04 01:35:33;;;;;;;1.90;0.90;;;;;;;19.91;46.01;101431.91;5050140;28;20040;-80
2022/04/04 01:37:59;;;;;;;1.85;0.80;;;;;;;20.09;45.54;101429.56;5050239;28;20029;-81
2022/04/04 01:40:25;;;;;;;0.68;0.60;;;;;;;19.74;46.28;101433.09;5048768;28;20033;-84
2022/04/04 01:42:52;;;;;;;2.33;0.82;;;;;;;20.09;45.45;101424.00;5050100;28;20056;-80
2022/04/04 01:46:23;;;;;;;0.88;0.50;;;;;;;19.81;46.17;101424.16;5050203;28;20017;-80
2022/04/04 01:48:05;;;;;;;1.35;0.77;;;;;;;20.08;45.33;101414.06;5049881;28;20076;-81
2022/04/04 01:50:31;;;;;;;0.90;0.40;;;;;;;20.38;44.58;101412.38;5048774;28;20499;-79
2022/04/04 01:55:43;;;;;;;0.75;0.40;;;;;;;20.26;44.88;101406.97;5049686;28;20547;-78
2022/04/04 01:58:09;;;;;;;0.80;0.40;;;;;;;20.21;44.88;101407.25;5049904;28;20025;-83
2022/04/04 02:00:34;;;;;;;1.33;0.55;;;;;;;20.11;45.13;101403.06;5050032;28;20077;-85
2022/04/04 02:03:00;;;;;;;5.35;0.70;;;;;;;20.04;45.29;101396.56;5048665;28;20033;-80
2022/04/04 02:05:26;;;;;;;1.42;0.30;;;;;;;19.98;45.33;101398.00;5049797;28;20108;-80
2022/04/04 02:07:52;;;;;;;0.82;0.35;;;;;;;20.08;45.06;101398.22;5049694;28;20017;-80
2022/04/04 02:10:17;;;;;;;2.47;0.73;;;;;;;20.23;44.64;101402.94;5045716;28;20024;-81
2022/04/04 02:12:43;;;;;;;2.35;0.70;;;;;;;20.32;44.56;101399.94;5047776;28;20033;-80
2022/04/04 02:15:08;;;;;;;1.58;0.50;;;;;;;20.16;44.77;101393.66;5049519;28;20028;-81
2022/04/04 02:17:34;;;;;;;0.73;0.52;;;;;;;20.45;43.98;101384.00;5049663;28;20028;-80
2022/04/04 02:20:00;;;;;;;0.32;0.32;;;;;;;19.84;45.65;101374.31;5049603;28;20032;-80
2022/04/04 02:22:25;;;;;;;0.30;0.30;;;;;;;19.94;45.29;101379.28;5049670;28;20021;-81
2022/04/04 02:24:51;;;;;;;0.98;0.40;;;;;;;20.11;44.93;101371.75;5049548;28;20112;-84
2022/04/04 02:27:18;;;;;;;0.80;0.50;;;;;;;19.87;45.42;101370.81;5049488;28;20032;-80
2022/04/04 02:29:43;;;;;;;1.35;0.85;;;;;;;19.90;45.46;101363.75;5049507;28;20563;-81
2022/04/04 02:32:09;;;;;;;1.40;1.23;;;;;;;19.98;45.17;101370.25;5049383;28;20057;-81
2022/04/04 02:34:35;;;;;;;1.15;0.77;;;;;;;19.89;45.11;101365.72;5049478;28;20108;-82
2022/04/04 02:37:00;;;;;;;1.63;0.47;;;;;;;20.11;44.87;101363.44;5049352;28;20425;-83
2022/04/04 02:39:26;;;;;;;0.98;0.57;;;;;;;20.21;44.40;101368.41;5048138;28;20082;-82
2022/04/04 02:41:51;;;;;;;0.70;0.43;;;;;;;20.04;45.00;101363.28;5049290;28;20021;-81
2022/04/04 02:44:17;;;;;;;0.30;0.30;;;;;;;20.20;44.57;101355.69;5048047;28;20028;-82
2022/04/04 02:46:42;;;;;;;0.28;0.20;;;;;;;19.80;45.53;101359.56;5049374;28;20406;-80
2022/04/04 02:49:08;;;;;;;1.85;0.52;;;;;;;19.82;45.77;101354.47;5049342;28;20029;-85
2022/04/04 02:51:33;;;;;;;0.25;0.20;;;;;;;20.13;44.74;101344.44;5049264;28;20056;-81
2022/04/04 02:53:59;;;;;;;0.90;0.63;;;;;;;20.00;45.19;101352.09;5049201;28;20040;-81
2022/04/04 02:56:31;;;;;;;0.65;0.28;;;;;;;20.11;44.85;101346.78;5049149;28;20097;-81
2022/04/04 02:58:59;;;;;;;0.80;0.30;;;;;;;19.94;45.32;101343.22;5049222;28;20025;-81
2022/04/04 03:01:25;;;;;;;1.05;0.30;;;;;;;20.27;44.43;101333.66;5049168;28;20029;-80
2022/04/04 03:03:51;;;;;;;1.55;0.30;;;;;;;19.78;45.62;101330.56;5049159;28;20029;-80
2022/04/04 03:06:17;;;;;;;0.65;0.30;;;;;;;19.99;45.04;101330.25;5049071;28;20033;-82
2022/04/04 03:08:43;;;;;;;0.20;0.20;;;;;;;19.96;45.01;101326.25;5051880;28;20086;-80
2022/04/04 03:11:08;;;;;;;1.17;0.40;;;;;;;20.08;44.87;101322.53;5051286;28;20058;-80
2022/04/04 03:13:34;;;;;;;0.95;0.40;;;;;;;19.93;45.22;101322.22;5052496;28;20387;-85
2022/04/04 03:15:59;;;;;;;0.40;0.30;;;;;;;19.43;46.46;101320.25;5052311;28;20068;-81
2022/04/04 03:18:26;;;;;;;2.35;1.00;;;;;;;19.62;46.13;101306.47;5052621;28;20070;-80
2022/04/04 03:20:52;;;;;;;2.20;0.70;;;;;;;19.65;46.12;101302.19;5052514;28;20029;-80
2022/04/04 03:23:20;;;;;;;1.05;0.43;;;;;;;19.52;46.48;101298.69;5052266;28;20036;-81
2022/04/04 03:25:46;;;;;;;2.92;0.52;;;;;;;19.88;45.54;101305.06;5052174;28;20093;-86
2022/04/04 03:28:12;;;;;;;1.10;0.45;;;;;;;19.64;46.12;101287.50;5052281;28;20028;-80
2022/04/04 03:30:37;;;;;;;1.08;0.40;;;;;;;19.81;45.76;101279.97;5052198;28;20109;-83
2022/04/04 03:33:03;;;;;;;3.45;0.50;;;;;;;19.79;45.56;101290.59;5052217;28;20032;-80
2022/04/04 03:35:31;;;;;;;5.05;0.98;;;;;;;19.59;46.24;101276.72;5052178;28;20058;-82
2022/04/04 03:38:00;;;;;;;1.70;0.30;;;;;;;19.48;46.81;101269.25;5052192;28;20375;-80
2022/04/04 03:40:26;;;;;;;1.83;0.77;;;;;;;19.67;45.96;101266.59;5052202;28;20029;-80
2022/04/04 03:42:54;;;;;;;2.53;0.47;;;;;;;19.58;46.01;101252.13;5051969;28;20509;-86
2022/04/04 03:45:21;;;;;;;2.25;0.63;;;;;;;19.54;46.00;101249.22;5050795;28;20025;-80
2022/04/04 03:47:48;;;;;;;3.25;0.93;;;;;;;19.23;46.89;101246.53;5052057;28;20032;-85
2022/04/04 03:50:14;;;;;;;4.97;1.17;;;;;;;19.14;47.08;101241.19;5050717;28;20036;-85
2022/04/04 03:52:42;;;;;;;8.02;1.58;;;;;;;19.58;45.81;101252.13;5051930;28;20103;-81
2022/04/04 03:55:10;;;;;;;4.03;1.25;;;;;;;19.59;45.90;101250.97;5051679;28;20222;-82
2022/04/04 03:57:36;;;;;;;3.17;1.10;;;;;;;19.66;45.44;101251.13;5051898;28;20049;-80
2022/04/04 04:00:05;;;;;;;7.60;1.65;;;;;;;19.67;45.49;101256.28;5051877;28;20128;-80
2022/04/04 04:02:31;;;;;;;3.15;0.75;;;;;;;19.58;45.44;101247.38;5051835;28;20112;-80
2022/04/04 04:04:57;;;;;;;4.88;0.95;;;;;;;19.39;46.32;101250.06;5051743;28;20029;-81
2022/04/04 04:07:24;;;;;;;2.72;0.90;;;;;;;19.70;45.38;101246.44;5050421;28;20027;-81
2022/04/04 04:09:54;;;;;;;3.20;0.77;;;;;;;19.71;45.03;101247.25;5050237;28;20033;-81
2022/04/04 04:12:22;;;;;;;2.57;0.90;;;;;;;19.88;45.00;101247.66;5051622;28;20033;-82
2022/04/04 04:14:51;;;;;;;1.45;0.88;;;;;;;19.67;45.48;101236.88;5051426;28;20365;-81
2022/04/04 04:17:21;;;;;;;2.10;0.80;;;;;;;20.01;44.42;101244.72;5051561;28;20029;-80
2022/04/04 04:22:31;;;;;;;2.95;0.50;;;;;;;19.53;45.67;101230.19;5051766;28;20502;-84
2022/04/04 04:24:58;;;;;;;3.17;0.85;;;;;;;19.85;45.00;101233.69;5051438;28;20033;-81
2022/04/04 04:27:24;;;;;;;2.58;0.63;;;;;;;19.90;44.67;101214.78;5050066;28;20113;-86
2022/04/04 04:29:50;;;;;;;2.28;0.70;;;;;;;19.81;45.15;101217.00;5051396;28;20068;-81
2022/04/04 04:32:15;;;;;;;3.33;0.90;;;;;;;19.78;45.24;101211.34;5051287;28;20526;-81
2022/04/04 04:34:46;;;;;;;4.75;0.98;;;;;;;19.90;44.77;101212.03;5051295;28;20017;-82
2022/04/04 04:37:13;;;;;;;6.80;1.17;;;;;;;19.93;44.83;101214.06;5050011;28;20487;-81
2022/04/04 04:39:39;;;;;;;5.57;1.02;;;;;;;19.94;44.79;101209.31;5051161;28;20033;-80
2022/04/04 04:42:05;;;;;;;7.60;2.13;;;;;;;19.47;46.01;101204.72;5050943;28;20017;-80
2022/04/04 04:44:31;;;;;;;4.68;1.45;;;;;;;19.55;45.58;101202.91;5051004;28;20031;-80
2022/04/04 04:46:57;;;;;;;4.75;1.10;;;;;;;19.64;45.52;101197.97;5051008;28;20029;-80
2022/04/04 04:49:25;;;;;;;2.20;0.80;;;;;;;19.44;46.24;101196.34;5050896;28;20021;-79
2022/04/04 04:51:52;;;;;;;3.33;0.82;;;;;;;19.69;45.44;101192.16;5050902;28;20471;-84
2022/04/04 04:54:19;;;;;;;3.53;0.80;;;;;;;19.66;45.57;101193.69;5050858;28;20025;-80
2022/04/04 04:56:45;;;;;;;3.45;0.70;;;;;;;19.36;46.28;101184.31;5050874;28;20110;-80
2022/04/04 04:59:11;;;;;;;2.88;0.65;;;;;;;19.35;46.47;101186.28;5049681;28;20120;-80
2022/04/04 05:01:36;;;;;;;4.28;0.70;;;;;;;19.34;46.28;101179.09;5050888;28;20032;-80
2022/04/04 05:04:02;;;;;;;2.47;0.68;;;;;;;19.61;45.77;101182.91;5050883;28;20017;-80
2022/04/04 05:06:28;;;;;;;3.03;0.60;;;;;;;19.73;45.49;101192.25;5050836;28;20068;-85
2022/04/04 05:08:59;;;;;;;2.05;0.60;;;;;;;19.85;45.26;101192.91;5050718;28;20483;-85
2022/04/04 05:11:25;;;;;;;1.70;0.60;;;;;;;19.98;44.74;101178.88;5049523;28;20483;-80
2022/04/04 05:13:51;;;;;;;1.48;0.63;;;;;;;19.94;44.76;101185.16;5050686;28;20052;-80
2022/04/04 05:16:17;;;;;;;3.13;0.90;;;;;;;20.03;44.85;101184.16;5050461;28;20452;-85
2022/04/04 05:18:44;;;;;;;3.47;0.82;;;;;;;20.03;44.62;101189.69;5050569;28;20021;-79
2022/04/04 05:21:11;;;;;;;3.08;0.88;;;;;;;19.93;45.12;101166.91;5049187;28;20067;-85
2022/04/04 05:23:38;;;;;;;2.10;0.60;;;;;;;19.99;44.86;101166.63;5049172;28;20033;-79
2022/04/04 05:26:04;;;;;;;1.52;0.80;;;;;;;19.51;46.08;101179.88;5050439;28;20379;-80
2022/04/04 05:28:30;;;;;;;2.00;0.70;;;;;;;19.87;45.19;101173.91;5050360;28;20028;-80
2022/04/04 05:30:56;;;;;;;2.22;0.93;;;;;;;19.78;45.66;101172.53;5049405;28;20388;-79
2022/04/04 05:33:22;;;;;;;1.23;0.63;;;;;;;19.66;45.83;101170.72;5050230;28;20032;-79
2022/04/04 05:35:48;;;;;;;1.67;0.73;;;;;;;19.91;45.17;101172.03;5050098;28;20111;-82
2022/04/04 05:38:14;;;;;;;0.93;0.50;;;;;;;20.00;45.02;101171.00;5050267;28;20531;-79
2022/04/04 05:40:40;;;;;;;1.25;0.73;;;;;;;19.66;45.84;101162.41;5050216;28;20029;-79
2022/04/04 05:43:07;;;;;;;2.90;0.70;;;;;;;19.85;45.39;101167.94;5049900;28;20068;-80
2022/04/04 05:45:35;;;;;;;1.90;1.30;;;;;;;19.80;45.69;101176.56;5050206;28;20474;-80
2022/04/04 05:48:02;;;;;;;2.65;0.60;;;;;;;20.01;45.19;101170.63;5050124;28;20455;-79
2022/04/04 05:50:27;;;;;;;2.75;0.80;;;;;;;19.80;45.71;101171.03;5048797;28;20067;-84
2022/04/04 05:52:53;;;;;;;8.02;1.85;;;;;;;20.16;44.69;101152.28;5049984;28;20041;-80
2022/04/04 05:55:19;;;;;;;2.08;0.75;;;;;;;19.81;45.71;101156.00;5049766;28;20117;-81
2022/04/04 05:57:45;;;;;;;1.15;0.47;;;;;;;19.66;46.02;101167.97;5048682;28;20102;-80
2022/04/04 06:00:13;;;;;;;1.58;0.52;;;;;;;20.08;44.98;101162.44;5049953;28;20424;-80
2022/04/04 06:02:40;;;;;;;1.45;0.70;;;;;;;19.72;46.18;101166.47;5049950;28;20021;-80
2022/04/04 06:05:08;;;;;;;3.47;1.00;;;;;;;19.33;47.27;101173.91;5049866;28;20021;-82
2022/04/04 06:07:34;;;;;;;3.80;1.42;;;;;;;19.86;45.88;101172.31;5049828;28;20020;-83
2022/04/04 06:10:01;;;;;;;3.20;0.98;;;;;;;19.81;45.92;101166.28;5049724;28;20383;-80
2022/04/04 06:12:26;;;;;;;1.08;0.63;;;;;;;19.88;45.80;101172.78;5049777;28;20044;-83
2022/04/04 06:14:52;;;;;;;2.30;1.05;;;;;;;19.27;47.43;101165.13;5049586;28;20420;-80
2022/04/04 06:17:18;;;;;;;1.75;0.90;;;;;;;19.82;45.86;101167.88;5048486;28;20372;-80
2022/04/04 06:19:44;;;;;;;3.22;0.70;;;;;;;20.01;45.41;101181.72;5049664;28;20077;-85
2022/04/04 06:22:10;;;;;;;3.53;1.13;;;;;;;20.09;45.32;101180.69;5049480;28;20394;-79
2022/04/04 06:24:36;;;;;;;3.90;0.82;;;;;;;19.97;45.70;101174.50;5049526;28;20033;-84
2022/04/04 06:27:02;;;;;;;2.53;0.93;;;;;;;19.84;46.05;101182.19;5049466;28;20025;-80
2022/04/04 06:29:28;;;;;;;2.85;0.98;;;;;;;20.43;44.55;101178.94;5049495;28;20029;-80
2022/04/04 06:31:55;;;;;;;2.75;1.33;;;;;;;20.09;45.32;101177.91;5048212;28;20029;-80
2022/04/04 06:34:21;;;;;;;6.55;1.83;;;;;;;20.27;45.08;101158.84;5049556;28;20483;-80
2022/04/04 06:36:47;;;;;;;4.22;1.40;;;;;;;20.26;45.02;101170.31;5049462;28;20025;-80
2022/04/04 06:39:14;;;;;;;2.83;0.88;;;;;;;20.14;45.45;101182.38;5049392;28;20071;-79
2022/04/04 06:41:40;;;;;;;4.63;1.00;;;;;;;19.52;47.03;101164.84;5048073;28;20033;-79
2022/04/04 06:44:07;;;;;;;4.85;1.00;;;;;;;19.85;46.31;101167.94;5052594;28;20048;-78
2022/04/04 06:46:36;;;;;;;6.45;2.15;;;;;;;19.70;46.81;101162.47;5051525;28;20395;-79
2022/04/04 06:49:02;;;;;;;2.67;1.25;;;;;;;19.59;47.22;101170.56;5052841;28;20025;-82
2022/04/04 06:51:28;;;;;;;2.85;2.15;;;;;;;19.95;46.08;101167.38;5052842;28;20056;-83
2022/04/04 06:53:53;;;;;;;4.25;0.95;;;;;;;20.07;45.92;101168.38;5052666;28;20048;-77
2022/04/04 06:56:19;;;;;;;3.38;1.08;;;;;;;19.60;47.20;101161.09;5052575;28;20041;-78
2022/04/04 06:58:44;;;;;;;2.60;0.88;;;;;;;20.35;45.11;101159.78;5052790;28;20029;-78
2022/04/04 07:01:10;;;;;;;2.90;1.15;;;;;;;20.17;45.66;101163.00;5052364;28;20029;-82
2022/04/04 07:03:36;;;;;;;1.35;0.80;;;;;;;20.13;45.81;101173.25;5038730;28;20116;-79
2022/04/04 07:06:01;;;;;;;1.73;0.73;;;;;;;20.01;46.28;101170.63;5038113;28;20045;-79
2022/04/04 07:08:28;;;;;;;2.53;0.63;;;;;;;20.18;45.54;101174.94;5041910;28;20085;-81
2022/04/04 07:10:54;;;;;;;2.65;0.90;;;;;;;19.76;46.86;101175.69;5040351;28;20025;-79
2022/04/04 07:13:20;;;;;;;3.85;1.52;;;;;;;19.97;46.37;101180.06;5040313;28;20026;-80
2022/04/04 07:15:46;;;;;;;1.88;1.20;;;;;;;20.00;46.40;101176.53;5042913;28;20045;-79
2022/04/04 07:18:12;;;;;;;3.30;1.23;;;;;;;20.36;45.38;101178.81;5046279;28;20036;-79
2022/04/04 07:20:38;;;;;;;3.03;1.45;;;;;;;20.14;45.95;101179.59;5041675;28;20041;-82
2022/04/04 07:23:05;;;;;;;3.35;1.30;;;;;;;20.24;45.48;101178.97;5039779;28;20032;-84
2022/04/04 07:25:30;;;;;;;3.05;1.02;;;;;;;19.93;46.66;101174.44;5040486;28;20025;-80
2022/04/04 07:27:56;;;;;;;5.88;1.60;;;;;;;20.63;44.86;101176.13;5051115;28;20025;-80
2022/04/04 07:30:23;;;;;;;3.60;1.15;;;;;;;20.33;45.61;101184.28;5037115;28;20467;-80
2022/04/04 07:32:50;;;;;;;4.00;1.05;;;;;;;20.50;45.15;101181.88;5032225;28;20481;-79
2022/04/04 07:35:18;;;;;;;3.40;1.02;;;;;;;20.63;45.02;101190.00;5032184;28;20033;-80
2022/04/04 07:37:46;;;;;;;5.00;1.33;;;;;;;20.32;45.64;101180.72;5032143;28;20052;-80
2022/04/04 07:40:14;;;;;;;2.22;0.98;;;;;;;20.79;44.61;101179.59;5030822;28;20098;-80
2022/04/04 07:42:42;;;;;;;1.30;0.70;;;;;;;20.37;45.42;101190.72;5031871;28;20098;-81
2022/04/04 07:45:09;;;;;;;2.85;1.00;;;;;;;20.42;45.52;101177.34;5031951;28;20034;-80
2022/04/04 07:47:36;;;;;;;1.73;0.80;;;;;;;20.45;45.40;101187.75;5032015;28;20118;-81
2022/04/04 07:50:02;;;;;;;3.20;1.27;;;;;;;20.44;45.47;101171.47;5032005;28;20022;-80
2022/04/04 07:52:28;;;;;;;1.02;0.80;;;;;;;20.11;46.36;101186.69;5031678;28;20061;-81
2022/04/04 07:54:54;;;;;;;1.75;0.52;;;;;;;20.79;44.87;101190.72;5031054;28;20424;-82
2022/04/04 07:57:21;;;;;;;1.98;0.82;;;;;;;20.74;44.91;101188.25;5029481;28;20030;-82
2022/04/04 07:59:47;;;;;;;2.38;1.17;;;;;;;20.29;46.10;101180.66;5031608;28;20061;-81
2022/04/04 08:02:13;;;;;;;1.38;0.77;;;;;;;20.46;45.76;101181.00;5031862;28;20025;-81
2022/04/04 08:04:39;;;;;;;4.13;1.20;;;;;;;20.36;46.32;101186.34;5031629;28;20488;-81
2022/04/04 08:07:05;;;;;;;1.27;0.55;;;;;;;20.48;45.98;101184.25;5031236;28;20058;-81
2022/04/04 08:09:35;;;;;;;3.05;0.85;;;;;;;20.74;45.26;101183.47;5031548;28;20476;-82
2022/04/04 08:12:00;;;;;;;1.20;0.60;;;;;;;20.37;46.33;101187.94;5030428;28;20029;-82
2022/04/04 08:14:26;;;;;;;3.58;1.00;;;;;;;20.83;45.34;101187.97;5030100;28;20040;-81
2022/04/04 08:16:52;;;;;;;2.65;0.95;;;;;;;20.81;45.21;101185.59;5031546;28;20029;-82
2022/04/04 08:19:18;;;;;;;2.28;0.80;;;;;;;20.79;45.52;101187.94;5030354;28;20154;-80
2022/04/04 08:21:44;;;;;;;2.13;0.70;;;;;;;20.74;45.82;101197.38;5039240;28;20029;-82
2022/04/04 08:24:14;;;;;;;1.25;0.50;;;;;;;20.84;45.68;101187.59;5050849;28;20074;-81
2022/04/04 08:26:40;;;;;;;1.30;0.77;;;;;;;20.73;46.04;101187.44;5049941;28;20600;-81
2022/04/04 08:29:08;;;;;;;0.90;0.50;;;;;;;20.83;46.00;101185.19;5051255;28;20061;-81
2022/04/04 08:31:35;;;;;;;0.93;0.60;;;;;;;21.41;44.38;101182.94;5049786;28;20017;-82
2022/04/04 08:34:01;;;;;;;1.27;0.60;;;;;;;21.22;44.92;101171.91;5051046;28;20074;-81
2022/04/04 08:36:27;;;;;;;1.88;0.52;;;;;;;21.47;44.47;101164.78;5049705;28;20037;-81
2022/04/04 08:38:52;;;;;;;1.67;0.60;;;;;;;21.70;43.83;101170.22;5051055;28;20025;-80
2022/04/04 08:41:19;;;;;;;2.78;0.57;;;;;;;21.53;44.44;101160.47;5050930;28;20017;-81
2022/04/04 08:43:51;;;;;;;2.28;0.75;;;;;;;21.28;44.97;101168.47;5050808;28;20041;-83
2022/04/04 08:46:17;;;;;;;3.03;0.95;;;;;;;21.43;44.67;101158.34;5050920;28;20040;-82
2022/04/04 08:48:43;;;;;;;2.25;0.70;;;;;;;21.43;44.91;101163.09;5050695;28;20036;-83
2022/04/04 08:51:10;;;;;;;2.95;1.20;;;;;;;21.21;44.63;101151.66;5050652;28;20472;-81
2022/04/04 08:53:37;;;;;;;2.83;0.60;;;;;;;21.42;44.69;101153.97;5049484;28;20061;-82
2022/04/04 08:56:05;;;;;;;2.10;0.80;;;;;;;21.41;44.59;101135.69;5049315;28;20033;-81
2022/04/04 08:58:31;;;;;;;0.50;0.50;;;;;;;21.65;44.10;101150.28;5049319;28;20031;-81
2022/04/04 09:00:58;;;;;;;1.13;0.65;;;;;;;21.64;43.97;101143.13;5049334;28;20116;-83
2022/04/04 09:03:31;;;;;;;3.13;1.05;;;;;;;21.78;43.64;101155.22;5050678;28;20029;-80
2022/04/04 09:05:58;;;;;;;0.75;0.65;;;;;;;21.69;43.70;101145.56;5046057;28;20126;-81
2022/04/04 09:08:25;;;;;;;1.17;0.70;;;;;;;21.55;44.16;101138.66;5050541;28;20182;-83
2022/04/04 09:10:56;;;;;;;3.60;1.10;;;;;;;21.83;43.33;101146.53;5049217;28;20459;-82
2022/04/04 09:13:24;;;;;;;1.27;1.08;;;;;;;21.89;43.40;101136.66;5050308;28;20029;-80
2022/04/04 09:15:59;;;;;;;8.15;1.67;;;;;;;21.92;43.32;101135.13;5050370;28;20570;-82
2022/04/04 09:18:50;;;;;;;3.20;1.00;;;;;;;22.21;42.54;101138.22;5048721;28;20033;-80
2022/04/04 09:21:19;;;;;;;8.68;1.95;;;;;;;22.12;43.09;101130.19;5032328;28;20093;-81
2022/04/04 09:23:50;;;;;;;2.50;1.00;;;;;;;22.26;42.97;101140.66;5049158;28;20479;-83
2022/04/04 09:26:41;;;;;;;0.98;0.70;;;;;;;22.14;42.72;101134.19;5050290;28;20033;-80
2022/04/04 09:29:14;;;;;;;3.92;1.10;;;;;;;22.42;42.72;101132.84;5046542;28;20043;-83
2022/04/04 09:32:11;;;;;;;1.83;1.20;;;;;;;22.67;41.99;101139.44;5050178;28;20035;-80
2022/04/04 09:34:57;;;;;;;13.38;2.75;;;;;;;22.67;41.74;101138.63;5049685;28;20488;-80
2022/04/04 09:37:24;;;;;;;30.35;4.63;;;;;;;22.66;41.74;101137.81;5048697;28;20119;-81
2022/04/04 09:40:06;;;;;;;5.25;1.75;;;;;;;22.65;41.76;101136.22;5048585;28;20372;-81
2022/04/04 09:42:32;;;;;;;12.50;2.15;;;;;;;22.98;41.25;101137.31;5048524;28;20136;-80
2022/04/04 09:45:08;;;;;;;6.40;1.60;;;;;;;23.25;40.94;101147.00;5048722;28;20464;-81
2022/04/04 09:47:51;;;;;;;3.75;1.65;;;;;;;22.95;41.44;101143.63;5049912;28;20031;-80
2022/04/04 09:50:41;;;;;;;4.07;1.40;;;;;;;23.02;41.00;101138.13;5049912;28;20025;-82
2022/04/04 09:53:19;;;;;;;9.75;2.75;;;;;;;23.17;40.60;101144.59;5049212;28;20029;-80
2022/04/04 09:55:52;;;;;;;1.88;0.90;;;;;;;23.04;40.51;101134.94;5045632;28;20128;-81
2022/04/04 09:58:20;;;;;;;44.20;8.88;;;;;;;23.44;39.89;101156.28;5049691;28;20025;-80
2022/04/04 10:00:50;;;;;;;14.63;3.00;;;;;;;23.49;39.64;101144.75;5050000;28;20390;-80
2022/04/04 10:03:17;;;;;;;26.65;4.30;;;;;;;23.29;40.07;101135.09;5049787;28;20028;-81
2022/04/04 10:05:59;;;;;;;6.10;1.45;;;;;;;23.09;40.23;101138.16;5049269;28;20548;-82
2022/04/04 10:08:26;;;;;;;3.65;1.23;;;;;;;23.44;39.71;101143.16;5048280;28;20035;-81
2022/04/04 10:10:54;;;;;;;7.97;2.13;;;;;;;23.34;39.95;101143.88;5049548;28;20475;-80
2022/04/04 10:13:20;;;;;;;1.63;1.20;;;;;;;23.14;40.29;101132.22;5048565;28;20040;-80
2022/04/04 10:15:46;;;;;;;4.57;1.30;;;;;;;23.69;39.41;101137.69;5044784;28;20029;-82
2022/04/04 10:18:14;;;;;;;4.18;1.30;;;;;;;23.76;39.18;101142.50;5047165;28;20517;-81
2022/04/04 10:20:41;;;;;;;5.95;1.73;;;;;;;23.28;39.80;101141.88;5043553;28;20017;-82
2022/04/04 10:23:11;;;;;;;1.95;0.95;;;;;;;23.74;39.06;101150.47;5046066;28;20559;-81
2022/04/04 10:25:38;;;;;;;8.25;1.58;;;;;;;23.86;38.88;101136.16;5047079;28;20049;-80
2022/04/04 10:28:03;;;;;;;4.00;0.73;;;;;;;23.63;39.18;101138.47;5048246;28;20078;-81
2022/04/04 10:30:40;;;;;;;7.45;3.28;;;;;;;23.29;39.82;101146.25;5048418;28;20479;-80
2022/04/04 10:33:18;;;;;;;4.40;1.23;;;;;;;23.84;38.80;101132.16;5046317;28;20029;-81
2022/04/04 10:36:01;;;;;;;19.45;3.17;;;;;;;24.20;38.47;101139.44;5047355;28;20545;-81
2022/04/04 10:38:34;;;;;;;7.32;1.50;;;;;;;24.37;38.22;101140.66;5046278;28;20105;-81
2022/04/04 10:41:07;;;;;;;9.10;2.17;;;;;;;24.18;38.61;101141.00;5047429;28;20032;-81
2022/04/04 10:43:36;;;;;;;2.55;0.85;;;;;;;24.21;38.66;101132.66;5046928;28;20041;-80
2022/04/04 10:46:07;;;;;;;1.92;0.60;;;;;;;23.95;38.59;101127.41;5048108;28;20021;-83
2022/04/04 10:58:17;;;;;;;6.68;0.75;;;;;;;24.39;37.60;101134.69;5048979;28;20037;-81
2022/04/04 11:00:59;;;;;;;4.25;0.57;;;;;;;24.74;37.48;101143.06;5048938;28;20025;-81
2022/04/04 11:03:32;;;;;;;5.35;1.17;;;;;;;24.50;37.71;101135.50;5047783;28;20529;-83
2022/04/04 11:09:14;;;;;;;10.57;2.78;;;;;;;24.58;37.46;101145.47;5049250;28;20565;-82
2022/04/04 11:12:00;;;;;;;2.47;0.60;;;;;;;24.69;37.22;101143.47;5049017;28;20446;-82
2022/04/04 11:14:28;;;;;;;2.92;1.00;;;;;;;24.75;36.86;101136.28;5047656;28;20025;-82
2022/04/04 11:17:06;;;;;;;13.93;4.22;;;;;;;24.57;37.03;101141.09;5047177;28;20025;-82
2022/04/04 11:19:45;;;;;;;1.63;0.85;;;;;;;24.44;37.49;101149.06;5047746;28;20052;-83
2022/04/04 11:22:16;;;;;;;9.23;2.05;;;;;;;24.33;37.19;101137.06;5047367;28;20040;-82
2022/04/04 11:24:43;;;;;;;5.82;1.30;;;;;;;24.58;37.01;101137.09;5047442;28;20036;-82
2022/04/04 11:27:10;;;;;;;5.38;1.55;;;;;;;24.44;37.25;101134.28;5047461;28;20029;-81
2022/04/04 11:29:38;;;;;;;2.45;0.85;;;;;;;24.47;37.00;101144.66;5050053;28;20032;-81
2022/04/04 11:32:04;;;;;;;3.05;1.15;;;;;;;24.70;36.96;101150.66;5050840;28;20029;-82
2022/04/04 11:34:31;;;;;;;2.45;0.80;;;;;;;24.83;36.84;101137.88;5051833;27;20517;-82
2022/04/04 11:36:58;;;;;;;1.30;0.70;;;;;;;24.60;37.07;101140.28;5051938;28;20033;-81
2022/04/04 11:39:23;;;;;;;1.00;0.68;;;;;;;24.79;36.56;101142.69;5051978;28;20028;-82
2022/04/04 11:41:53;;;;;;;4.70;1.15;;;;;;;24.37;37.28;101145.47;5049017;28;20044;-81
2022/04/04 11:44:46;;;;;;;1.92;0.90;;;;;;;24.43;37.04;101149.47;5050706;28;20533;-83